sensor_id;sensor_type;location;lat;lon;timestamp;P1;durP1;ratioP1;P2;durP2;ratioP2
2021;SDS011;1015;49.756;6.994;2022-12-26T00:01:37;8.53;;;5.80;;
2021;SDS011;1015;49.756;6.994;2022-12-26T00:04:05;7.77;;;5.77;;
2021;SDS011;1015;49.756;6.994;2022-12-26T00:06:32;5.83;;;5.23;;
2021;SDS011;1015;49.756;6.994;2022-12-26T00:09:02;8.37;;;5.73;;
2021;SDS011;1015;49.756;6.994;2022-12-26T00:11:30;7.60;;;6.00;;
2021;SDS011;1015;49.756;6.994;2022-12-26T00:13:58;9.00;;;5.53;;
2021;SDS011;1015;49.756;6.994;2022-12-26T00:16:26;9.10;;;5.90;;
2021;SDS011;1015;49.756;6.994;2022-12-26T00:18:53;8.63;;;6.17;;
2021;SDS011;1015;49.756;6.994;2022-12-26T00:21:21;7.13;;;5.50;;
2021;SDS011;1015;49.756;6.994;2022-12-26T00:23:51;7.20;;;6.30;;
2021;SDS011;1015;49.756;6.994;2022-12-26T00:26:20;8.50;;;5.27;;
2021;SDS011;1015;49.756;6.994;2022-12-26T00:28:48;8.43;;;5.57;;
2021;SDS011;1015;49.756;6.994;2022-12-26T00:31:16;6.83;;;5.77;;
2021;SDS011;1015;49.756;6.994;2022-12-26T00:33:44;8.80;;;5.50;;
2021;SDS011;1015;49.756;6.994;2022-12-26T00:36:12;10.30;;;6.20;;
2021;SDS011;1015;49.756;6.994;2022-12-26T00:38:40;6.70;;;5.60;;
2021;SDS011;1015;49.756;6.994;2022-12-26T00:41:08;8.03;;;5.77;;
2021;SDS011;1015;49.756;6.994;2022-12-26T00:43:37;8.00;;;5.70;;
2021;SDS011;1015;49.756;6.994;2022-12-26T00:46:05;8.43;;;5.77;;
2021;SDS011;1015;49.756;6.994;2022-12-26T00:48:32;7.00;;;5.03;;
2021;SDS011;1015;49.756;6.994;2022-12-26T00:51:00;6.37;;;5.43;;
2021;SDS011;1015;49.756;6.994;2022-12-26T00:53:27;10.00;;;5.40;;
2021;SDS011;1015;49.756;6.994;2022-12-26T00:55:54;6.70;;;4.90;;
2021;SDS011;1015;49.756;6.994;2022-12-26T00:58:22;8.13;;;5.73;;
2021;SDS011;1015;49.756;6.994;2022-12-26T01:00:51;7.03;;;5.17;;
2021;SDS011;1015;49.756;6.994;2022-12-26T01:03:18;7.80;;;5.30;;
2021;SDS011;1015;49.756;6.994;2022-12-26T01:05:46;6.50;;;5.03;;
2021;SDS011;1015;49.756;6.994;2022-12-26T01:08:14;11.93;;;5.73;;
2021;SDS011;1015;49.756;6.994;2022-12-26T01:10:41;7.60;;;5.10;;
2021;SDS011;1015;49.756;6.994;2022-12-26T01:13:08;7.87;;;4.90;;
2021;SDS011;1015;49.756;6.994;2022-12-26T01:15:36;7.73;;;5.10;;
2021;SDS011;1015;49.756;6.994;2022-12-26T01:18:05;7.23;;;5.63;;
2021;SDS011;1015;49.756;6.994;2022-12-26T01:20:32;7.70;;;4.70;;
2021;SDS011;1015;49.756;6.994;2022-12-26T01:22:59;6.90;;;4.57;;
2021;SDS011;1015;49.756;6.994;2022-12-26T01:25:26;5.97;;;4.70;;
2021;SDS011;1015;49.756;6.994;2022-12-26T01:27:54;8.57;;;5.03;;
2021;SDS011;1015;49.756;6.994;2022-12-26T01:30:23;7.53;;;4.83;;
2021;SDS011;1015;49.756;6.994;2022-12-26T01:32:50;7.37;;;5.30;;
2021;SDS011;1015;49.756;6.994;2022-12-26T01:35:19;6.07;;;5.00;;
2021;SDS011;1015;49.756;6.994;2022-12-26T01:37:46;6.20;;;5.27;;
2021;SDS011;1015;49.756;6.994;2022-12-26T01:40:13;6.30;;;4.70;;
2021;SDS011;1015;49.756;6.994;2022-12-26T01:42:40;6.17;;;4.63;;
2021;SDS011;1015;49.756;6.994;2022-12-26T01:45:16;5.23;;;4.47;;
2021;SDS011;1015;49.756;6.994;2022-12-26T01:47:48;5.93;;;4.30;;
2021;SDS011;1015;49.756;6.994;2022-12-26T01:50:20;7.57;;;4.70;;
2021;SDS011;1015;49.756;6.994;2022-12-26T01:52:50;6.57;;;4.90;;
2021;SDS011;1015;49.756;6.994;2022-12-26T01:55:18;6.87;;;4.97;;
2021;SDS011;1015;49.756;6.994;2022-12-26T01:57:48;6.20;;;5.00;;
2021;SDS011;1015;49.756;6.994;2022-12-26T02:00:17;5.40;;;4.87;;
2021;SDS011;1015;49.756;6.994;2022-12-26T02:02:44;7.13;;;5.00;;
2021;SDS011;1015;49.756;6.994;2022-12-26T02:05:31;7.60;;;4.63;;
2021;SDS011;1015;49.756;6.994;2022-12-26T02:08:02;6.53;;;5.30;;
2021;SDS011;1015;49.756;6.994;2022-12-26T02:10:30;6.00;;;4.77;;
2021;SDS011;1015;49.756;6.994;2022-12-26T02:12:59;8.17;;;5.00;;
2021;SDS011;1015;49.756;6.994;2022-12-26T02:15:26;6.73;;;5.37;;
2021;SDS011;1015;49.756;6.994;2022-12-26T02:17:54;5.40;;;4.50;;
2021;SDS011;1015;49.756;6.994;2022-12-26T02:20:22;5.77;;;4.10;;
2021;SDS011;1015;49.756;6.994;2022-12-26T02:25:56;7.53;;;4.43;;
2021;SDS011;1015;49.756;6.994;2022-12-26T02:31:18;7.40;;;4.80;;
2021;SDS011;1015;49.756;6.994;2022-12-26T02:33:52;6.70;;;4.50;;
2021;SDS011;1015;49.756;6.994;2022-12-26T02:36:30;9.80;;;4.70;;
2021;SDS011;1015;49.756;6.994;2022-12-26T02:39:04;6.50;;;4.67;;
2021;SDS011;1015;49.756;6.994;2022-12-26T02:41:35;5.37;;;4.67;;
2021;SDS011;1015;49.756;6.994;2022-12-26T02:44:08;6.80;;;4.70;;
2021;SDS011;1015;49.756;6.994;2022-12-26T02:46:55;6.07;;;4.20;;
2021;SDS011;1015;49.756;6.994;2022-12-26T02:49:30;5.40;;;4.10;;
2021;SDS011;1015;49.756;6.994;2022-12-26T02:52:24;7.03;;;4.13;;
2021;SDS011;1015;49.756;6.994;2022-12-26T02:55:11;5.90;;;4.37;;
2021;SDS011;1015;49.756;6.994;2022-12-26T02:57:58;5.70;;;4.20;;
2021;SDS011;1015;49.756;6.994;2022-12-26T03:00:45;5.50;;;4.67;;
2021;SDS011;1015;49.756;6.994;2022-12-26T03:03:33;6.80;;;4.00;;
2021;SDS011;1015;49.756;6.994;2022-12-26T03:06:19;4.80;;;4.30;;
2021;SDS011;1015;49.756;6.994;2022-12-26T03:09:06;5.20;;;4.60;;
2021;SDS011;1015;49.756;6.994;2022-12-26T03:11:53;5.30;;;3.90;;
2021;SDS011;1015;49.756;6.994;2022-12-26T03:14:40;7.40;;;4.20;;
2021;SDS011;1015;49.756;6.994;2022-12-26T03:17:11;6.20;;;4.10;;
2021;SDS011;1015;49.756;6.994;2022-12-26T03:19:49;4.67;;;3.80;;
2021;SDS011;1015;49.756;6.994;2022-12-26T03:22:30;5.60;;;3.70;;
2021;SDS011;1015;49.756;6.994;2022-12-26T03:24:59;7.23;;;3.90;;
2021;SDS011;1015;49.756;6.994;2022-12-26T03:27:44;5.33;;;4.67;;
2021;SDS011;1015;49.756;6.994;2022-12-26T03:30:11;5.40;;;4.13;;
2021;SDS011;1015;49.756;6.994;2022-12-26T03:32:56;4.40;;;4.00;;
2021;SDS011;1015;49.756;6.994;2022-12-26T03:35:25;5.40;;;4.27;;
2021;SDS011;1015;49.756;6.994;2022-12-26T03:37:54;4.80;;;4.20;;
2021;SDS011;1015;49.756;6.994;2022-12-26T03:40:29;8.40;;;4.40;;
2021;SDS011;1015;49.756;6.994;2022-12-26T03:43:19;5.77;;;4.63;;
2021;SDS011;1015;49.756;6.994;2022-12-26T03:46:11;5.80;;;3.83;;
2021;SDS011;1015;49.756;6.994;2022-12-26T03:49:08;5.60;;;4.13;;
2021;SDS011;1015;49.756;6.994;2022-12-26T03:52:13;6.30;;;4.50;;
2021;SDS011;1015;49.756;6.994;2022-12-26T03:55:00;6.37;;;4.43;;
2021;SDS011;1015;49.756;6.994;2022-12-26T03:57:52;6.90;;;4.40;;
2021;SDS011;1015;49.756;6.994;2022-12-26T04:00:38;7.57;;;4.03;;
2021;SDS011;1015;49.756;6.994;2022-12-26T04:03:25;6.53;;;4.30;;
2021;SDS011;1015;49.756;6.994;2022-12-26T04:06:13;4.77;;;3.93;;
2021;SDS011;1015;49.756;6.994;2022-12-26T04:09:03;5.30;;;4.00;;
2021;SDS011;1015;49.756;6.994;2022-12-26T04:11:51;6.60;;;4.03;;
2021;SDS011;1015;49.756;6.994;2022-12-26T04:14:38;5.93;;;4.10;;
2021;SDS011;1015;49.756;6.994;2022-12-26T04:17:25;4.67;;;3.80;;
2021;SDS011;1015;49.756;6.994;2022-12-26T04:20:15;8.90;;;4.17;;
2021;SDS011;1015;49.756;6.994;2022-12-26T04:22:46;5.40;;;3.90;;
2021;SDS011;1015;49.756;6.994;2022-12-26T04:25:34;6.13;;;4.30;;
2021;SDS011;1015;49.756;6.994;2022-12-26T04:28:20;6.03;;;3.90;;
2021;SDS011;1015;49.756;6.994;2022-12-26T04:31:07;5.93;;;3.80;;
2021;SDS011;1015;49.756;6.994;2022-12-26T04:33:55;5.20;;;3.73;;
2021;SDS011;1015;49.756;6.994;2022-12-26T04:36:42;5.30;;;3.80;;
2021;SDS011;1015;49.756;6.994;2022-12-26T04:39:29;5.77;;;3.30;;
2021;SDS011;1015;49.756;6.994;2022-12-26T04:42:16;5.53;;;3.60;;
2021;SDS011;1015;49.756;6.994;2022-12-26T04:45:01;5.17;;;3.80;;
2021;SDS011;1015;49.756;6.994;2022-12-26T04:47:29;5.90;;;3.57;;
2021;SDS011;1015;49.756;6.994;2022-12-26T04:49:56;4.00;;;3.50;;
2021;SDS011;1015;49.756;6.994;2022-12-26T04:52:39;5.77;;;4.00;;
2021;SDS011;1015;49.756;6.994;2022-12-26T04:55:24;7.07;;;3.67;;
2021;SDS011;1015;49.756;6.994;2022-12-26T04:57:52;6.30;;;3.83;;
2021;SDS011;1015;49.756;6.994;2022-12-26T05:00:20;5.37;;;3.50;;
2021;SDS011;1015;49.756;6.994;2022-12-26T05:02:49;4.67;;;3.53;;
2021;SDS011;1015;49.756;6.994;2022-12-26T05:05:35;5.13;;;3.63;;
2021;SDS011;1015;49.756;6.994;2022-12-26T05:08:34;4.03;;;3.07;;
2021;SDS011;1015;49.756;6.994;2022-12-26T05:11:29;4.67;;;3.53;;
2021;SDS011;1015;49.756;6.994;2022-12-26T05:13:58;4.53;;;3.60;;
2021;SDS011;1015;49.756;6.994;2022-12-26T05:16:25;4.67;;;3.30;;
2021;SDS011;1015;49.756;6.994;2022-12-26T05:19:11;4.27;;;2.80;;
2021;SDS011;1015;49.756;6.994;2022-12-26T05:21:56;4.80;;;3.33;;
2021;SDS011;1015;49.756;6.994;2022-12-26T05:24:41;3.07;;;2.77;;
2021;SDS011;1015;49.756;6.994;2022-12-26T05:27:26;3.10;;;2.73;;
2021;SDS011;1015;49.756;6.994;2022-12-26T05:30:15;3.90;;;3.00;;
2021;SDS011;1015;49.756;6.994;2022-12-26T05:32:43;3.30;;;3.00;;
2021;SDS011;1015;49.756;6.994;2022-12-26T05:35:27;3.17;;;2.73;;
2021;SDS011;1015;49.756;6.994;2022-12-26T05:37:55;3.10;;;2.53;;
2021;SDS011;1015;49.756;6.994;2022-12-26T05:40:22;2.90;;;2.60;;
2021;SDS011;1015;49.756;6.994;2022-12-26T05:42:49;3.63;;;2.77;;
2021;SDS011;1015;49.756;6.994;2022-12-26T05:45:18;4.93;;;3.17;;
2021;SDS011;1015;49.756;6.994;2022-12-26T05:47:45;3.33;;;2.63;;
2021;SDS011;1015;49.756;6.994;2022-12-26T05:50:12;3.07;;;2.70;;
2021;SDS011;1015;49.756;6.994;2022-12-26T05:52:39;3.23;;;2.80;;
2021;SDS011;1015;49.756;6.994;2022-12-26T05:55:07;4.90;;;3.03;;
2021;SDS011;1015;49.756;6.994;2022-12-26T05:57:34;4.07;;;2.53;;
2021;SDS011;1015;49.756;6.994;2022-12-26T06:00:01;4.77;;;2.80;;
2021;SDS011;1015;49.756;6.994;2022-12-26T06:02:30;4.67;;;2.70;;
2021;SDS011;1015;49.756;6.994;2022-12-26T06:04:57;5.53;;;3.00;;
2021;SDS011;1015;49.756;6.994;2022-12-26T06:07:25;5.33;;;2.90;;
2021;SDS011;1015;49.756;6.994;2022-12-26T06:09:52;2.83;;;2.57;;
2021;SDS011;1015;49.756;6.994;2022-12-26T06:12:19;7.00;;;2.73;;
2021;SDS011;1015;49.756;6.994;2022-12-26T06:14:46;5.10;;;2.70;;
2021;SDS011;1015;49.756;6.994;2022-12-26T06:17:14;4.33;;;3.10;;
2021;SDS011;1015;49.756;6.994;2022-12-26T06:19:42;5.20;;;2.90;;
2021;SDS011;1015;49.756;6.994;2022-12-26T06:22:09;3.40;;;2.83;;
2021;SDS011;1015;49.756;6.994;2022-12-26T06:24:37;4.20;;;2.50;;
2021;SDS011;1015;49.756;6.994;2022-12-26T06:27:04;4.80;;;2.73;;
2021;SDS011;1015;49.756;6.994;2022-12-26T06:29:31;2.57;;;2.33;;
2021;SDS011;1015;49.756;6.994;2022-12-26T06:31:58;4.90;;;3.07;;
2021;SDS011;1015;49.756;6.994;2022-12-26T06:34:25;6.30;;;3.20;;
2021;SDS011;1015;49.756;6.994;2022-12-26T06:36:54;6.20;;;2.67;;
2021;SDS011;1015;49.756;6.994;2022-12-26T06:39:21;4.03;;;2.40;;
2021;SDS011;1015;49.756;6.994;2022-12-26T06:41:49;2.93;;;2.57;;
2021;SDS011;1015;49.756;6.994;2022-12-26T06:44:16;4.10;;;2.70;;
2021;SDS011;1015;49.756;6.994;2022-12-26T06:46:43;3.43;;;2.40;;
2021;SDS011;1015;49.756;6.994;2022-12-26T06:49:11;3.67;;;2.73;;
2021;SDS011;1015;49.756;6.994;2022-12-26T06:51:38;2.83;;;2.53;;
2021;SDS011;1015;49.756;6.994;2022-12-26T06:54:06;3.80;;;3.37;;
2021;SDS011;1015;49.756;6.994;2022-12-26T06:56:34;3.40;;;2.63;;
2021;SDS011;1015;49.756;6.994;2022-12-26T06:59:02;3.77;;;2.37;;
2021;SDS011;1015;49.756;6.994;2022-12-26T07:01:30;4.43;;;2.70;;
2021;SDS011;1015;49.756;6.994;2022-12-26T07:03:58;3.83;;;2.70;;
2021;SDS011;1015;49.756;6.994;2022-12-26T07:06:25;3.23;;;2.40;;
2021;SDS011;1015;49.756;6.994;2022-12-26T07:08:54;2.47;;;2.00;;
2021;SDS011;1015;49.756;6.994;2022-12-26T07:11:24;2.77;;;2.10;;
2021;SDS011;1015;49.756;6.994;2022-12-26T07:13:52;2.63;;;2.33;;
2021;SDS011;1015;49.756;6.994;2022-12-26T07:16:19;2.43;;;2.20;;
2021;SDS011;1015;49.756;6.994;2022-12-26T07:18:46;3.23;;;2.57;;
2021;SDS011;1015;49.756;6.994;2022-12-26T07:21:14;2.90;;;2.20;;
2021;SDS011;1015;49.756;6.994;2022-12-26T07:23:41;4.50;;;2.30;;
2021;SDS011;1015;49.756;6.994;2022-12-26T07:26:08;2.83;;;2.00;;
2021;SDS011;1015;49.756;6.994;2022-12-26T07:28:37;2.37;;;2.17;;
2021;SDS011;1015;49.756;6.994;2022-12-26T07:31:04;2.17;;;1.97;;
2021;SDS011;1015;49.756;6.994;2022-12-26T07:33:32;2.10;;;1.90;;
2021;SDS011;1015;49.756;6.994;2022-12-26T07:35:59;3.07;;;2.30;;
2021;SDS011;1015;49.756;6.994;2022-12-26T07:38:27;2.33;;;1.90;;
2021;SDS011;1015;49.756;6.994;2022-12-26T07:40:54;2.03;;;1.80;;
2021;SDS011;1015;49.756;6.994;2022-12-26T07:43:22;2.73;;;2.07;;
2021;SDS011;1015;49.756;6.994;2022-12-26T07:45:50;1.87;;;1.67;;
2021;SDS011;1015;49.756;6.994;2022-12-26T07:48:18;1.87;;;1.77;;
2021;SDS011;1015;49.756;6.994;2022-12-26T07:50:45;4.00;;;2.20;;
2021;SDS011;1015;49.756;6.994;2022-12-26T07:53:13;2.00;;;1.77;;
2021;SDS011;1015;49.756;6.994;2022-12-26T07:55:41;1.77;;;1.60;;
2021;SDS011;1015;49.756;6.994;2022-12-26T07:58:08;2.33;;;2.13;;
2021;SDS011;1015;49.756;6.994;2022-12-26T08:00:35;2.53;;;2.17;;
2021;SDS011;1015;49.756;6.994;2022-12-26T08:03:04;2.80;;;2.20;;
2021;SDS011;1015;49.756;6.994;2022-12-26T08:05:31;2.20;;;1.90;;
2021;SDS011;1015;49.756;6.994;2022-12-26T08:07:58;2.70;;;1.97;;
2021;SDS011;1015;49.756;6.994;2022-12-26T08:10:25;1.83;;;1.73;;
2021;SDS011;1015;49.756;6.994;2022-12-26T08:12:53;2.83;;;2.10;;
2021;SDS011;1015;49.756;6.994;2022-12-26T08:15:20;2.20;;;1.90;;
2021;SDS011;1015;49.756;6.994;2022-12-26T08:17:47;3.97;;;1.90;;
2021;SDS011;1015;49.756;6.994;2022-12-26T08:20:16;3.00;;;1.80;;
2021;SDS011;1015;49.756;6.994;2022-12-26T08:22:43;3.10;;;2.00;;
2021;SDS011;1015;49.756;6.994;2022-12-26T08:25:10;2.63;;;1.53;;
2021;SDS011;1015;49.756;6.994;2022-12-26T08:27:37;2.03;;;1.77;;
2021;SDS011;1015;49.756;6.994;2022-12-26T08:30:05;2.40;;;2.10;;
2021;SDS011;1015;49.756;6.994;2022-12-26T08:32:32;1.73;;;1.63;;
2021;SDS011;1015;49.756;6.994;2022-12-26T08:35:00;2.23;;;1.70;;
2021;SDS011;1015;49.756;6.994;2022-12-26T08:37:28;1.80;;;1.37;;
2021;SDS011;1015;49.756;6.994;2022-12-26T08:39:56;4.40;;;1.67;;
2021;SDS011;1015;49.756;6.994;2022-12-26T08:42:23;1.50;;;1.40;;
2021;SDS011;1015;49.756;6.994;2022-12-26T08:44:50;1.90;;;1.70;;
2021;SDS011;1015;49.756;6.994;2022-12-26T08:47:18;1.63;;;1.30;;
2021;SDS011;1015;49.756;6.994;2022-12-26T08:49:46;1.83;;;1.10;;
2021;SDS011;1015;49.756;6.994;2022-12-26T08:52:13;2.37;;;1.40;;
2021;SDS011;1015;49.756;6.994;2022-12-26T08:54:41;2.07;;;1.30;;
2021;SDS011;1015;49.756;6.994;2022-12-26T08:57:09;0.80;;;0.70;;
2021;SDS011;1015;49.756;6.994;2022-12-26T08:59:36;0.80;;;0.73;;
2021;SDS011;1015;49.756;6.994;2022-12-26T09:02:03;1.00;;;0.90;;
2021;SDS011;1015;49.756;6.994;2022-12-26T09:04:30;1.27;;;1.17;;
2021;SDS011;1015;49.756;6.994;2022-12-26T09:06:58;1.43;;;0.83;;
2021;SDS011;1015;49.756;6.994;2022-12-26T09:09:25;1.10;;;1.00;;
2021;SDS011;1015;49.756;6.994;2022-12-26T09:11:54;1.80;;;1.20;;
2021;SDS011;1015;49.756;6.994;2022-12-26T09:14:21;1.57;;;1.30;;
2021;SDS011;1015;49.756;6.994;2022-12-26T09:16:48;3.10;;;1.67;;
2021;SDS011;1015;49.756;6.994;2022-12-26T09:19:17;2.50;;;1.80;;
2021;SDS011;1015;49.756;6.994;2022-12-26T09:21:45;3.03;;;1.70;;
2021;SDS011;1015;49.756;6.994;2022-12-26T09:24:13;4.57;;;1.80;;
2021;SDS011;1015;49.756;6.994;2022-12-26T09:26:41;2.20;;;1.77;;
2021;SDS011;1015;49.756;6.994;2022-12-26T09:29:10;2.60;;;2.00;;
2021;SDS011;1015;49.756;6.994;2022-12-26T09:31:37;2.87;;;2.10;;
2021;SDS011;1015;49.756;6.994;2022-12-26T09:34:05;3.17;;;2.10;;
2021;SDS011;1015;49.756;6.994;2022-12-26T09:36:33;3.50;;;2.30;;
2021;SDS011;1015;49.756;6.994;2022-12-26T09:39:03;1.97;;;1.87;;
2021;SDS011;1015;49.756;6.994;2022-12-26T09:41:39;3.60;;;2.30;;
2021;SDS011;1015;49.756;6.994;2022-12-26T09:44:14;2.47;;;1.80;;
2021;SDS011;1015;49.756;6.994;2022-12-26T09:46:43;2.80;;;2.07;;
2021;SDS011;1015;49.756;6.994;2022-12-26T09:49:16;2.67;;;2.10;;
2021;SDS011;1015;49.756;6.994;2022-12-26T09:51:47;2.77;;;2.00;;
2021;SDS011;1015;49.756;6.994;2022-12-26T09:54:17;5.00;;;2.60;;
2021;SDS011;1015;49.756;6.994;2022-12-26T09:56:45;3.40;;;2.50;;
2021;SDS011;1015;49.756;6.994;2022-12-26T09:59:15;3.40;;;2.23;;
2021;SDS011;1015;49.756;6.994;2022-12-26T10:01:43;3.37;;;2.10;;
2021;SDS011;1015;49.756;6.994;2022-12-26T10:04:15;3.40;;;2.10;;
2021;SDS011;1015;49.756;6.994;2022-12-26T10:06:44;4.00;;;2.53;;
2021;SDS011;1015;49.756;6.994;2022-12-26T10:09:17;4.00;;;2.10;;
2021;SDS011;1015;49.756;6.994;2022-12-26T10:11:53;5.03;;;2.73;;
2021;SDS011;1015;49.756;6.994;2022-12-26T10:14:27;2.30;;;2.10;;
2021;SDS011;1015;49.756;6.994;2022-12-26T10:16:58;2.87;;;2.20;;
2021;SDS011;1015;49.756;6.994;2022-12-26T10:19:30;3.23;;;2.53;;
2021;SDS011;1015;49.756;6.994;2022-12-26T10:22:02;3.33;;;2.20;;
2021;SDS011;1015;49.756;6.994;2022-12-26T10:24:31;3.20;;;2.17;;
2021;SDS011;1015;49.756;6.994;2022-12-26T10:27:00;4.20;;;2.20;;
2021;SDS011;1015;49.756;6.994;2022-12-26T10:29:31;2.20;;;2.00;;
2021;SDS011;1015;49.756;6.994;2022-12-26T10:32:01;1.93;;;1.67;;
2021;SDS011;1015;49.756;6.994;2022-12-26T10:34:31;2.67;;;1.77;;
2021;SDS011;1015;49.756;6.994;2022-12-26T10:37:00;3.47;;;2.10;;
2021;SDS011;1015;49.756;6.994;2022-12-26T10:39:29;2.97;;;2.67;;
2021;SDS011;1015;49.756;6.994;2022-12-26T10:42:00;3.00;;;2.33;;
2021;SDS011;1015;49.756;6.994;2022-12-26T10:44:30;3.17;;;2.00;;
2021;SDS011;1015;49.756;6.994;2022-12-26T10:47:01;2.20;;;2.00;;
2021;SDS011;1015;49.756;6.994;2022-12-26T10:49:31;4.57;;;2.20;;
2021;SDS011;1015;49.756;6.994;2022-12-26T10:51:59;3.27;;;1.90;;
2021;SDS011;1015;49.756;6.994;2022-12-26T10:54:27;2.83;;;1.83;;
2021;SDS011;1015;49.756;6.994;2022-12-26T10:56:55;4.90;;;2.03;;
2021;SDS011;1015;49.756;6.994;2022-12-26T10:59:34;2.50;;;1.77;;
2021;SDS011;1015;49.756;6.994;2022-12-26T11:02:11;4.00;;;2.10;;
2021;SDS011;1015;49.756;6.994;2022-12-26T11:04:39;2.13;;;2.00;;
2021;SDS011;1015;49.756;6.994;2022-12-26T11:07:22;3.57;;;2.03;;
2021;SDS011;1015;49.756;6.994;2022-12-26T11:09:50;2.03;;;1.50;;
2021;SDS011;1015;49.756;6.994;2022-12-26T11:12:20;3.57;;;1.90;;
2021;SDS011;1015;49.756;6.994;2022-12-26T11:14:49;2.13;;;1.93;;
2021;SDS011;1015;49.756;6.994;2022-12-26T11:17:27;2.50;;;1.60;;
2021;SDS011;1015;49.756;6.994;2022-12-26T11:20:08;2.37;;;1.87;;
2021;SDS011;1015;49.756;6.994;2022-12-26T11:22:36;1.47;;;1.37;;
2021;SDS011;1015;49.756;6.994;2022-12-26T11:25:11;5.20;;;2.00;;
2021;SDS011;1015;49.756;6.994;2022-12-26T11:27:39;2.30;;;1.70;;
2021;SDS011;1015;49.756;6.994;2022-12-26T11:33:04;2.87;;;1.87;;
2021;SDS011;1015;49.756;6.994;2022-12-26T11:35:32;4.40;;;1.87;;
2021;SDS011;1015;49.756;6.994;2022-12-26T11:38:02;4.03;;;1.60;;
2021;SDS011;1015;49.756;6.994;2022-12-26T11:40:31;2.70;;;1.73;;
2021;SDS011;1015;49.756;6.994;2022-12-26T11:42:59;4.80;;;2.10;;
2021;SDS011;1015;49.756;6.994;2022-12-26T11:45:29;2.63;;;1.60;;
2021;SDS011;1015;49.756;6.994;2022-12-26T11:48:00;2.27;;;1.50;;
2021;SDS011;1015;49.756;6.994;2022-12-26T11:50:29;2.00;;;1.63;;
2021;SDS011;1015;49.756;6.994;2022-12-26T11:53:03;1.80;;;1.70;;
2021;SDS011;1015;49.756;6.994;2022-12-26T11:55:31;2.23;;;1.70;;
2021;SDS011;1015;49.756;6.994;2022-12-26T11:58:01;3.93;;;1.60;;
2021;SDS011;1015;49.756;6.994;2022-12-26T12:00:37;2.50;;;1.50;;
2021;SDS011;1015;49.756;6.994;2022-12-26T12:03:08;5.40;;;2.00;;
2021;SDS011;1015;49.756;6.994;2022-12-26T12:05:40;2.37;;;1.70;;
2021;SDS011;1015;49.756;6.994;2022-12-26T12:08:19;3.47;;;1.87;;
2021;SDS011;1015;49.756;6.994;2022-12-26T12:10:50;4.67;;;1.77;;
2021;SDS011;1015;49.756;6.994;2022-12-26T12:13:26;1.50;;;1.40;;
2021;SDS011;1015;49.756;6.994;2022-12-26T12:15:59;4.20;;;1.70;;
2021;SDS011;1015;49.756;6.994;2022-12-26T12:18:31;3.57;;;1.50;;
2021;SDS011;1015;49.756;6.994;2022-12-26T12:21:06;2.30;;;1.50;;
2021;SDS011;1015;49.756;6.994;2022-12-26T12:23:38;2.90;;;1.47;;
2021;SDS011;1015;49.756;6.994;2022-12-26T12:26:09;2.20;;;1.60;;
2021;SDS011;1015;49.756;6.994;2022-12-26T12:31:31;2.90;;;1.70;;
2021;SDS011;1015;49.756;6.994;2022-12-26T12:34:04;1.40;;;1.27;;
2021;SDS011;1015;49.756;6.994;2022-12-26T12:36:35;3.30;;;1.70;;
2021;SDS011;1015;49.756;6.994;2022-12-26T12:39:05;3.07;;;1.47;;
2021;SDS011;1015;49.756;6.994;2022-12-26T12:44:18;3.23;;;1.30;;
2021;SDS011;1015;49.756;6.994;2022-12-26T12:46:49;1.37;;;1.20;;
2021;SDS011;1015;49.756;6.994;2022-12-26T12:49:24;1.50;;;1.40;;
2021;SDS011;1015;49.756;6.994;2022-12-26T12:51:57;3.83;;;1.30;;
2021;SDS011;1015;49.756;6.994;2022-12-26T12:57:15;3.80;;;1.33;;
2021;SDS011;1015;49.756;6.994;2022-12-26T12:59:49;1.73;;;1.20;;
2021;SDS011;1015;49.756;6.994;2022-12-26T13:02:19;2.20;;;1.43;;
2021;SDS011;1015;49.756;6.994;2022-12-26T13:04:50;2.20;;;1.10;;
2021;SDS011;1015;49.756;6.994;2022-12-26T13:07:22;2.07;;;1.40;;
2021;SDS011;1015;49.756;6.994;2022-12-26T13:09:52;2.93;;;1.23;;
2021;SDS011;1015;49.756;6.994;2022-12-26T13:12:22;3.47;;;1.30;;
2021;SDS011;1015;49.756;6.994;2022-12-26T13:14:51;3.67;;;1.63;;
2021;SDS011;1015;49.756;6.994;2022-12-26T13:17:21;1.63;;;1.53;;
2021;SDS011;1015;49.756;6.994;2022-12-26T13:19:50;3.17;;;1.53;;
2021;SDS011;1015;49.756;6.994;2022-12-26T13:22:22;1.40;;;1.30;;
2021;SDS011;1015;49.756;6.994;2022-12-26T13:24:52;3.73;;;1.30;;
2021;SDS011;1015;49.756;6.994;2022-12-26T13:27:21;2.50;;;1.30;;
2021;SDS011;1015;49.756;6.994;2022-12-26T13:29:51;2.40;;;1.50;;
2021;SDS011;1015;49.756;6.994;2022-12-26T13:32:19;2.93;;;1.77;;
2021;SDS011;1015;49.756;6.994;2022-12-26T13:34:47;1.37;;;1.27;;
2021;SDS011;1015;49.756;6.994;2022-12-26T13:40:04;1.90;;;1.40;;
2021;SDS011;1015;49.756;6.994;2022-12-26T13:42:32;2.63;;;1.60;;
2021;SDS011;1015;49.756;6.994;2022-12-26T13:48:45;3.40;;;1.70;;
2021;SDS011;1015;49.756;6.994;2022-12-26T13:51:02;3.63;;;2.00;;
2021;SDS011;1015;49.756;6.994;2022-12-26T13:53:31;4.90;;;1.80;;
2021;SDS011;1015;49.756;6.994;2022-12-26T13:56:00;2.03;;;1.67;;
2021;SDS011;1015;49.756;6.994;2022-12-26T13:58:32;2.60;;;1.60;;
2021;SDS011;1015;49.756;6.994;2022-12-26T14:01:03;2.90;;;1.57;;
2021;SDS011;1015;49.756;6.994;2022-12-26T14:03:46;3.67;;;1.60;;
2021;SDS011;1015;49.756;6.994;2022-12-26T14:06:26;1.50;;;1.30;;
2021;SDS011;1015;49.756;6.994;2022-12-26T14:09:04;3.33;;;1.40;;
2021;SDS011;1015;49.756;6.994;2022-12-26T14:11:41;1.83;;;1.40;;
2021;SDS011;1015;49.756;6.994;2022-12-26T14:14:16;2.47;;;1.40;;
2021;SDS011;1015;49.756;6.994;2022-12-26T14:16:47;2.40;;;1.27;;
2021;SDS011;1015;49.756;6.994;2022-12-26T14:19:18;3.00;;;1.70;;
2021;SDS011;1015;49.756;6.994;2022-12-26T14:21:53;2.57;;;1.27;;
2021;SDS011;1015;49.756;6.994;2022-12-26T14:24:25;2.83;;;1.30;;
2021;SDS011;1015;49.756;6.994;2022-12-26T14:26:59;3.10;;;1.43;;
2021;SDS011;1015;49.756;6.994;2022-12-26T14:29:29;2.90;;;1.20;;
2021;SDS011;1015;49.756;6.994;2022-12-26T14:32:02;2.70;;;1.63;;
2021;SDS011;1015;49.756;6.994;2022-12-26T14:34:37;1.87;;;1.20;;
2021;SDS011;1015;49.756;6.994;2022-12-26T14:37:11;2.40;;;1.40;;
2021;SDS011;1015;49.756;6.994;2022-12-26T14:39:54;3.57;;;1.63;;
2021;SDS011;1015;49.756;6.994;2022-12-26T14:42:28;3.40;;;1.63;;
2021;SDS011;1015;49.756;6.994;2022-12-26T14:48:00;3.17;;;1.30;;
2021;SDS011;1015;49.756;6.994;2022-12-26T14:50:38;2.00;;;1.60;;
2021;SDS011;1015;49.756;6.994;2022-12-26T14:55:52;3.90;;;1.37;;
2021;SDS011;1015;49.756;6.994;2022-12-26T14:58:27;1.87;;;1.27;;
2021;SDS011;1015;49.756;6.994;2022-12-26T15:00:56;2.17;;;0.90;;
2021;SDS011;1015;49.756;6.994;2022-12-26T15:03:43;1.87;;;1.17;;
2021;SDS011;1015;49.756;6.994;2022-12-26T15:06:24;0.77;;;0.50;;
2021;SDS011;1015;49.756;6.994;2022-12-26T15:09:21;1.77;;;0.63;;
2021;SDS011;1015;49.756;6.994;2022-12-26T15:14:55;1.30;;;0.80;;
2021;SDS011;1015;49.756;6.994;2022-12-26T15:17:25;0.77;;;0.67;;
2021;SDS011;1015;49.756;6.994;2022-12-26T15:20:11;0.97;;;0.70;;
2021;SDS011;1015;49.756;6.994;2022-12-26T15:25:40;1.07;;;0.97;;
2021;SDS011;1015;49.756;6.994;2022-12-26T15:28:21;1.40;;;0.80;;
2021;SDS011;1015;49.756;6.994;2022-12-26T15:31:04;2.00;;;1.13;;
2021;SDS011;1015;49.756;6.994;2022-12-26T15:33:37;1.30;;;1.10;;
2021;SDS011;1015;49.756;6.994;2022-12-26T15:36:06;1.47;;;0.80;;
2021;SDS011;1015;49.756;6.994;2022-12-26T15:38:42;1.23;;;0.67;;
2021;SDS011;1015;49.756;6.994;2022-12-26T15:41:12;2.27;;;1.00;;
2021;SDS011;1015;49.756;6.994;2022-12-26T15:43:47;1.40;;;1.30;;
2021;SDS011;1015;49.756;6.994;2022-12-26T15:46:19;0.90;;;0.90;;
2021;SDS011;1015;49.756;6.994;2022-12-26T15:51:35;1.20;;;0.70;;
2021;SDS011;1015;49.756;6.994;2022-12-26T15:54:11;2.80;;;0.73;;
2021;SDS011;1015;49.756;6.994;2022-12-26T15:56:47;0.60;;;0.40;;
2021;SDS011;1015;49.756;6.994;2022-12-26T15:59:36;0.80;;;0.77;;
2021;SDS011;1015;49.756;6.994;2022-12-26T16:02:10;0.97;;;0.53;;
2021;SDS011;1015;49.756;6.994;2022-12-26T16:04:39;0.80;;;0.70;;
2021;SDS011;1015;49.756;6.994;2022-12-26T16:07:08;0.60;;;0.60;;
2021;SDS011;1015;49.756;6.994;2022-12-26T16:09:42;0.60;;;0.60;;
2021;SDS011;1015;49.756;6.994;2022-12-26T16:12:17;1.63;;;0.60;;
2021;SDS011;1015;49.756;6.994;2022-12-26T16:14:45;0.87;;;0.70;;
2021;SDS011;1015;49.756;6.994;2022-12-26T16:17:20;1.53;;;0.70;;
2021;SDS011;1015;49.756;6.994;2022-12-26T16:19:48;0.80;;;0.50;;
2021;SDS011;1015;49.756;6.994;2022-12-26T16:22:17;1.37;;;0.77;;
2021;SDS011;1015;49.756;6.994;2022-12-26T16:25:02;1.13;;;0.70;;